SBIZ Informações do Aeroporto

Informações da Pista
Pista 7 Comprimento 5899 ft Largura 148 ft
Elevação 0 ft Limite 0 ft Heading 0
Pista 25 Comprimento 5899 ft Largura 148 ft
Elevação 0 ft Limite 0 ft Heading 0
Frequências do Aeroporto
Tipo AFIS Nome RDO Frequência 125.85 MHZ
Navaids do Aeroporto
Tipo VOR-DME Nome Imperatriz Frequência 112700 KHZ
Tipo NDB Nome Imperatriz Frequência 390 KHZ
Informações meteorológicas do aeroporto e NOTAM
ADDS - METARS form results

(0409 UTC 17 September 2019)
Data provider http://aviationweather.gov/metar/data/
 
Forecast for: SBIZ (IMPERATRIZE , BR)
Text: TAF SBIZ 162117Z 1700/1712 00000KT CAVOK TN24/1709Z TX29/1712Z
Forecast period: 0000 to 0900 UTC 17 September 2019
Forecast type: FROM: standard forecast or significant change
Winds: calm
Visibility: 6 or more miles 10+ km)
Ceiling: unknown
Clouds: missing
Weather: no significant weather forecast for this period
Text: BECMG 1709/1711 08005KT RMK PHI
Forecast period: 0900 to 1200 UTC 17 September 2019
Forecast type: BECOMING: Conditions expected to become as follows by 1100 UTC 17 September 2019
Winds: from the E (80 degrees) at 6 MPH (5 knots; 2.6 m/s)
Visibility: 6 or more miles 10+ km)
Ceiling: unknown
Clouds: missing
Weather: no significant weather forecast for this period